Time;durP1;ratioP1;P1;durP2;ratioP2;P2;SDS_P1;SDS_P2;PMS_P1;PMS_P2;Temp;Humidity;BMP_temperature;BMP_pressure;BME280_temperature;BME280_humidity;BME280_pressure;Samples;Min_cycle;Max_cycle;Signal;HPM_P1;HPM_P2
2023/10/04 00:00:59;;;;;;;52.63;30.35;;;;;;;19.41;100.00;101306.84;4823108;29;20057;-69
2023/10/04 00:03:27;;;;;;;51.17;31.52;;;;;;;19.41;100.00;101300.47;4823039;29;20057;-69
2023/10/04 00:05:55;;;;;;;53.20;30.23;;;;;;;19.49;100.00;101296.91;4823207;29;20054;-69
2023/10/04 00:08:25;;;;;;;48.53;29.35;;;;;;;19.45;100.00;101293.13;4823073;29;20051;-69
2023/10/04 00:10:54;;;;;;;52.13;31.08;;;;;;;19.45;100.00;101293.97;4822707;29;20058;-69
2023/10/04 00:13:22;;;;;;;52.30;33.30;;;;;;;19.49;100.00;101290.53;4819475;29;20057;-69
2023/10/04 00:15:50;;;;;;;54.42;32.53;;;;;;;19.53;100.00;101292.34;4806631;29;20503;-69
2023/10/04 00:18:18;;;;;;;52.28;30.50;;;;;;;19.73;100.00;101304.78;4823027;29;20445;-69
2023/10/04 00:20:46;;;;;;;49.10;29.55;;;;;;;19.73;100.00;101315.06;4822875;29;20050;-69
2023/10/04 00:23:14;;;;;;;46.05;29.90;;;;;;;19.56;100.00;101319.44;4822743;29;20046;-70
2023/10/04 00:25:42;;;;;;;46.42;29.88;;;;;;;19.38;100.00;101315.00;4822798;29;20046;-70
2023/10/04 00:28:10;;;;;;;50.58;31.23;;;;;;;19.26;100.00;101310.06;4789090;29;20514;-70
2023/10/04 00:30:37;;;;;;;50.00;30.48;;;;;;;19.27;100.00;101320.84;4806513;29;20054;-69
2023/10/04 00:33:08;;;;;;;51.22;31.75;;;;;;;19.15;100.00;101320.63;4806468;29;20042;-69
2023/10/04 00:35:40;;;;;;;45.75;27.98;;;;;;;19.08;100.00;101312.78;4822641;29;20102;-70
2023/10/04 00:38:13;;;;;;;50.38;30.15;;;;;;;18.96;100.00;101321.66;4822352;29;20047;-70
2023/10/04 00:40:41;;;;;;;51.17;30.98;;;;;;;18.89;100.00;101321.31;4821761;29;20390;-70
2023/10/04 00:43:19;;;;;;;46.80;31.10;;;;;;;18.83;100.00;101325.34;4802921;29;20058;-69
2023/10/04 00:45:49;;;;;;;48.58;29.63;;;;;;;18.81;100.00;101322.91;4790701;29;20047;-70
2023/10/04 00:48:23;;;;;;;52.80;30.35;;;;;;;18.80;100.00;101330.41;4804603;29;20047;-69
2023/10/04 00:50:52;;;;;;;67.18;33.60;;;;;;;18.85;100.00;101328.63;4807049;29;20066;-69
2023/10/04 00:53:22;;;;;;;48.03;30.38;;;;;;;18.86;100.00;101320.00;4808116;29;20047;-69
2023/10/04 00:55:53;;;;;;;54.28;31.67;;;;;;;18.93;100.00;101314.81;4807917;29;20047;-69
2023/10/04 00:58:21;;;;;;;53.80;32.08;;;;;;;18.86;100.00;101327.50;4807539;29;20494;-69
2023/10/04 01:00:49;;;;;;;52.83;31.88;;;;;;;19.15;100.00;101328.94;4807641;29;20050;-70
2023/10/04 01:03:23;;;;;;;51.58;31.45;;;;;;;19.05;100.00;101319.78;4806351;29;20051;-69
2023/10/04 01:05:53;;;;;;;50.58;31.02;;;;;;;18.92;100.00;101323.47;4806440;29;20038;-70
2023/10/04 01:08:23;;;;;;;49.60;32.08;;;;;;;18.88;100.00;101317.75;4806554;29;20058;-69
2023/10/04 01:10:54;;;;;;;55.25;31.75;;;;;;;18.85;100.00;101315.59;4806507;29;20053;-69
2023/10/04 01:13:22;;;;;;;47.08;30.42;;;;;;;18.79;100.00;101317.69;4807342;29;20050;-69
2023/10/04 01:15:59;;;;;;;53.28;31.27;;;;;;;18.78;100.00;101320.78;4807538;29;20058;-69
2023/10/04 01:18:30;;;;;;;49.47;30.83;;;;;;;18.76;100.00;101311.94;4807653;29;20077;-70
2023/10/04 01:20:59;;;;;;;52.22;31.38;;;;;;;18.73;100.00;101316.16;4806190;29;20057;-69
2023/10/04 01:23:28;;;;;;;50.90;32.30;;;;;;;18.79;100.00;101317.69;4806013;29;20051;-69
2023/10/04 01:25:56;;;;;;;52.67;31.23;;;;;;;19.02;100.00;101323.16;4798231;29;20062;-70
2023/10/04 01:28:28;;;;;;;52.15;32.80;;;;;;;18.98;100.00;101313.88;4807092;29;20057;-70
2023/10/04 01:31:00;;;;;;;47.85;30.27;;;;;;;18.89;100.00;101318.53;4800426;29;20058;-69
2023/10/04 01:33:29;;;;;;;56.95;31.08;;;;;;;18.86;100.00;101325.53;4805901;29;20043;-69
2023/10/04 01:35:58;;;;;;;52.35;30.63;;;;;;;18.86;100.00;101333.06;4807316;29;20054;-69
2023/10/04 01:38:29;;;;;;;48.20;29.98;;;;;;;19.09;100.00;101333.00;4806170;29;20423;-69
2023/10/04 01:40:58;;;;;;;48.65;31.23;;;;;;;19.12;100.00;101332.38;4806065;29;20051;-69
2023/10/04 01:43:27;;;;;;;52.42;30.80;;;;;;;19.00;100.00;101330.16;4822993;29;20498;-69
2023/10/04 01:45:59;;;;;;;50.50;31.73;;;;;;;18.89;100.00;101329.63;4810449;29;20577;-69
2023/10/04 01:48:31;;;;;;;51.85;32.00;;;;;;;18.80;100.00;101326.81;4824064;29;20062;-69
2023/10/04 01:51:02;;;;;;;50.28;31.23;;;;;;;18.73;100.00;101327.25;4824753;29;20051;-69
2023/10/04 01:53:33;;;;;;;49.75;30.55;;;;;;;18.69;100.00;101319.91;4809094;29;20065;-69
2023/10/04 01:56:11;;;;;;;48.95;30.67;;;;;;;18.76;100.00;101317.47;4824931;29;20066;-69
2023/10/04 01:58:40;;;;;;;51.88;31.02;;;;;;;18.70;100.00;101327.91;4808880;29;20043;-69
2023/10/04 02:01:08;;;;;;;53.78;32.42;;;;;;;18.63;100.00;101320.03;4824745;29;20046;-69
2023/10/04 02:03:36;;;;;;;57.58;32.10;;;;;;;18.59;100.00;101320.97;4809006;29;20403;-70
2023/10/04 02:06:07;;;;;;;51.05;32.50;;;;;;;18.54;100.00;101316.41;4824833;29;20046;-69
2023/10/04 02:08:35;;;;;;;51.05;31.95;;;;;;;18.54;100.00;101325.50;4808562;29;20063;-69
2023/10/04 02:11:04;;;;;;;54.42;32.58;;;;;;;18.59;100.00;101324.59;4824667;29;20413;-70
2023/10/04 02:13:35;;;;;;;48.85;32.08;;;;;;;18.58;100.00;101319.34;4824436;29;20050;-69
2023/10/04 02:16:05;;;;;;;51.17;31.33;;;;;;;18.54;100.00;101319.97;4824726;29;20046;-70
2023/10/04 02:18:33;;;;;;;51.17;31.08;;;;;;;18.65;100.00;101317.78;4824539;29;20058;-69
2023/10/04 02:21:01;;;;;;;47.80;30.60;;;;;;;18.65;100.00;101311.41;4823962;29;20057;-70
2023/10/04 02:23:30;;;;;;;48.67;30.23;;;;;;;18.67;100.00;101328.53;4824485;29;20047;-69
2023/10/04 02:25:58;;;;;;;54.33;32.15;;;;;;;18.65;100.00;101322.50;4824468;29;20521;-69
2023/10/04 02:28:26;;;;;;;49.97;31.55;;;;;;;18.67;100.00;101322.97;4808126;29;20042;-69
2023/10/04 02:30:54;;;;;;;48.70;32.00;;;;;;;18.61;100.00;101324.25;4824314;29;20482;-70
2023/10/04 02:33:32;;;;;;;52.83;30.90;;;;;;;18.67;100.00;101325.75;4808214;29;20408;-70
2023/10/04 02:36:00;;;;;;;51.83;31.35;;;;;;;18.75;100.00;101327.78;4824458;29;20058;-69
2023/10/04 02:38:33;;;;;;;51.33;31.13;;;;;;;18.70;100.00;101339.00;4824348;29;20483;-69
2023/10/04 02:41:05;;;;;;;54.03;32.92;;;;;;;18.59;100.00;101326.53;4807596;29;20057;-69
2023/10/04 02:43:33;;;;;;;51.70;32.30;;;;;;;18.75;100.00;101325.00;4824418;29;20055;-70
2023/10/04 02:46:01;;;;;;;52.03;30.92;;;;;;;18.78;100.00;101320.78;4824053;29;20058;-69
2023/10/04 02:48:32;;;;;;;50.60;31.95;;;;;;;18.70;100.00;101329.84;4824348;29;20058;-70
2023/10/04 02:51:01;;;;;;;51.65;32.25;;;;;;;18.65;100.00;101328.88;4823620;29;20065;-70
2023/10/04 02:53:29;;;;;;;52.97;30.92;;;;;;;18.54;100.00;101333.84;4824224;29;20049;-69
2023/10/04 02:55:58;;;;;;;51.63;31.98;;;;;;;18.42;100.00;101328.03;4807838;29;20046;-70
2023/10/04 02:58:36;;;;;;;52.25;31.73;;;;;;;18.37;100.00;101320.69;4807998;29;20843;-69
2023/10/04 03:01:08;;;;;;;47.90;30.23;;;;;;;18.35;100.00;101322.97;4807653;29;20055;-69
2023/10/04 03:03:37;;;;;;;47.05;28.88;;;;;;;18.29;100.00;101318.69;4807529;29;20043;-69
2023/10/04 03:06:06;;;;;;;56.92;32.20;;;;;;;18.31;100.00;101321.94;4807390;29;20521;-69
2023/10/04 03:08:35;;;;;;;58.22;31.73;;;;;;;18.29;100.00;101329.75;4807396;29;20045;-69
2023/10/04 03:11:04;;;;;;;50.63;31.85;;;;;;;18.34;100.00;101326.84;4807260;29;20410;-69
2023/10/04 03:13:35;;;;;;;50.05;30.70;;;;;;;18.43;100.00;101334.41;4807058;29;20053;-69
2023/10/04 03:16:05;;;;;;;54.20;31.02;;;;;;;18.53;100.00;101329.44;4806542;29;20046;-69
2023/10/04 03:18:35;;;;;;;51.92;30.95;;;;;;;18.56;100.00;101335.50;4805554;29;20043;-69
2023/10/04 03:21:13;;;;;;;51.72;32.92;;;;;;;18.46;100.00;101334.59;4802801;29;20050;-69
2023/10/04 03:23:44;;;;;;;55.47;31.38;;;;;;;18.39;100.00;101331.47;4804554;29;20057;-69
2023/10/04 03:26:18;;;;;;;56.90;33.13;;;;;;;18.32;100.00;101333.84;4819511;29;20051;-69
2023/10/04 03:28:56;;;;;;;55.22;33.90;;;;;;;18.33;100.00;101341.03;4806430;29;20073;-69
2023/10/04 03:31:28;;;;;;;55.60;32.92;;;;;;;18.31;100.00;101346.06;4806924;29;20066;-69
2023/10/04 03:33:59;;;;;;;54.03;34.08;;;;;;;18.21;100.00;101347.94;4807312;29;20054;-69
2023/10/04 03:36:34;;;;;;;52.55;33.38;;;;;;;18.11;100.00;101349.00;4806903;29;20057;-69
2023/10/04 03:39:09;;;;;;;54.55;33.83;;;;;;;18.13;100.00;101340.38;4807216;29;20077;-69
2023/10/04 03:41:42;;;;;;;65.93;35.47;;;;;;;18.05;100.00;101347.47;4806913;29;20062;-69
2023/10/04 03:44:12;;;;;;;54.45;32.15;;;;;;;18.04;100.00;101345.00;4823553;29;20065;-69
2023/10/04 03:46:40;;;;;;;54.65;34.20;;;;;;;17.96;100.00;101341.03;4807046;29;20046;-69
2023/10/04 03:49:08;;;;;;;57.63;34.85;;;;;;;17.95;100.00;101342.97;4807096;29;20046;-69
2023/10/04 03:51:36;;;;;;;57.50;34.50;;;;;;;17.93;100.00;101333.34;4807212;29;20050;-69
2023/10/04 03:54:08;;;;;;;56.85;34.03;;;;;;;18.00;100.00;101344.81;4807043;29;20054;-69
2023/10/04 03:56:41;;;;;;;52.20;34.83;;;;;;;17.94;100.00;101335.78;4807123;29;20046;-69
2023/10/04 03:59:10;;;;;;;61.40;35.05;;;;;;;18.03;100.00;101346.13;4806849;29;20069;-69
2023/10/04 04:01:39;;;;;;;54.72;33.90;;;;;;;18.07;100.00;101349.94;4807031;29;20061;-69
2023/10/04 04:04:07;;;;;;;57.55;33.90;;;;;;;18.11;100.00;101346.25;4823272;29;20057;-69
2023/10/04 04:06:36;;;;;;;51.67;33.10;;;;;;;18.14;100.00;101358.66;4806941;29;20118;-69
2023/10/04 04:09:08;;;;;;;54.65;34.15;;;;;;;18.13;100.00;101354.22;4823201;29;20498;-69
2023/10/04 04:11:36;;;;;;;53.60;33.05;;;;;;;18.18;100.00;101348.56;4823175;29;20045;-69
2023/10/04 04:14:07;;;;;;;56.85;35.65;;;;;;;18.13;100.00;101354.22;4806882;29;20057;-69
2023/10/04 04:16:37;;;;;;;52.10;32.85;;;;;;;18.13;100.00;101359.75;4792152;29;20062;-69
2023/10/04 04:19:08;;;;;;;53.05;33.65;;;;;;;18.08;100.00;101366.25;4791703;29;20543;-69
2023/10/04 04:21:37;;;;;;;56.67;33.22;;;;;;;18.04;100.00;101372.69;4806620;29;20058;-69
2023/10/04 04:24:06;;;;;;;53.72;33.05;;;;;;;17.96;100.00;101372.31;4806905;29;20057;-69
2023/10/04 04:26:34;;;;;;;57.63;33.58;;;;;;;18.03;100.00;101366.31;4810005;29;20050;-69
2023/10/04 04:29:03;;;;;;;53.72;33.15;;;;;;;18.09;100.00;101375.38;4822752;29;20062;-69
2023/10/04 04:31:32;;;;;;;55.08;34.90;;;;;;;18.29;100.00;101385.19;4809645;29;20061;-70
2023/10/04 04:34:03;;;;;;;56.42;34.20;;;;;;;18.20;100.00;101387.88;4826374;29;20055;-69
2023/10/04 04:36:32;;;;;;;53.92;34.60;;;;;;;18.02;100.00;101377.75;4809490;29;20244;-70
2023/10/04 04:39:09;;;;;;;59.53;33.78;;;;;;;17.94;100.00;101391.16;4825773;29;20410;-69
2023/10/04 04:41:40;;;;;;;56.08;35.92;;;;;;;17.99;100.00;101393.03;4825787;29;20049;-69
2023/10/04 04:44:09;;;;;;;59.50;33.50;;;;;;;18.02;100.00;101391.59;4809316;29;20054;-69
2023/10/04 04:46:43;;;;;;;64.47;37.30;;;;;;;18.05;100.00;101394.53;4809823;29;20050;-70
2023/10/04 04:49:12;;;;;;;58.33;34.63;;;;;;;18.12;100.00;101392.19;4794870;29;20049;-70
2023/10/04 04:51:41;;;;;;;54.88;34.05;;;;;;;18.15;100.00;101390.75;4805314;29;20061;-70
2023/10/04 04:54:09;;;;;;;60.13;36.55;;;;;;;18.23;100.00;101398.31;4809318;29;20510;-70
2023/10/04 04:56:37;;;;;;;60.38;36.53;;;;;;;18.35;100.00;101395.00;4823729;29;20486;-70
2023/10/04 04:59:10;;;;;;;53.83;33.85;;;;;;;18.43;100.00;101403.69;4808825;29;20054;-69
2023/10/04 05:01:41;;;;;;;59.33;34.83;;;;;;;18.44;100.00;101391.47;4811563;29;20046;-69
2023/10/04 05:04:11;;;;;;;56.72;35.30;;;;;;;18.68;100.00;101396.72;4809567;29;20773;-69
2023/10/04 05:06:40;;;;;;;55.30;33.05;;;;;;;18.80;100.00;101407.22;4794669;29;20073;-69
2023/10/04 05:09:10;;;;;;;56.83;33.78;;;;;;;18.85;100.00;101412.63;4795011;29;20513;-69
2023/10/04 05:11:39;;;;;;;57.63;34.03;;;;;;;18.86;100.00;101419.00;4825168;29;20126;-70
2023/10/04 05:14:08;;;;;;;55.15;33.30;;;;;;;18.85;100.00;101412.63;4809403;29;20050;-70
2023/10/04 05:16:37;;;;;;;50.13;32.08;;;;;;;18.83;100.00;101420.47;4825559;29;20057;-70
2023/10/04 05:19:09;;;;;;;57.00;34.42;;;;;;;18.87;100.00;101420.66;4829016;29;20049;-70
2023/10/04 05:21:37;;;;;;;53.95;32.60;;;;;;;18.86;100.00;101430.91;4825198;29;20057;-70
2023/10/04 05:24:06;;;;;;;58.28;34.15;;;;;;;18.90;100.00;101425.53;4825513;29;20073;-71
2023/10/04 05:26:35;;;;;;;58.92;33.92;;;;;;;18.94;100.00;101429.34;4826718;29;20057;-70
2023/10/04 05:29:04;;;;;;;58.17;33.65;;;;;;;18.91;100.00;101428.00;4827253;29;20057;-70
2023/10/04 05:31:32;;;;;;;70.10;40.65;;;;;;;18.93;100.00;101430.47;4843811;29;20050;-70
2023/10/04 05:34:02;;;;;;;70.38;39.65;;;;;;;18.91;100.00;101446.59;4827432;29;20045;-71
2023/10/04 05:36:39;;;;;;;76.30;41.38;;;;;;;18.90;100.00;101458.81;4841706;29;20513;-71
2023/10/04 05:39:17;;;;;;;66.70;37.45;;;;;;;18.93;100.00;101458.22;4825378;29;20430;-79
2023/10/04 05:41:47;;;;;;;68.00;41.63;;;;;;;19.18;100.00;101453.16;4807180;29;20061;-80
2023/10/04 05:44:15;;;;;;;70.28;40.88;;;;;;;19.43;100.00;101462.78;4825050;29;20061;-80
2023/10/04 05:46:44;;;;;;;72.03;40.85;;;;;;;19.55;100.00;101462.16;4825326;29;20067;-78
2023/10/04 05:49:12;;;;;;;74.05;41.78;;;;;;;19.72;100.00;101471.72;4825133;29;20064;-79
2023/10/04 05:51:41;;;;;;;69.53;39.90;;;;;;;19.71;100.00;101472.84;4825335;29;20057;-79
2023/10/04 05:54:10;;;;;;;70.75;39.47;;;;;;;19.84;100.00;101485.78;4825202;29;20114;-79
2023/10/04 05:56:39;;;;;;;66.05;39.00;;;;;;;19.84;100.00;101485.00;4825127;29;20499;-79
2023/10/04 05:59:10;;;;;;;68.47;40.55;;;;;;;19.96;100.00;101493.56;4825180;29;20054;-79
2023/10/04 06:01:39;;;;;;;63.20;38.38;;;;;;;19.95;100.00;101493.84;4824486;29;20402;-79
2023/10/04 06:04:07;;;;;;;66.55;38.40;;;;;;;20.01;100.00;101500.91;4824975;29;20069;-79
2023/10/04 06:06:36;;;;;;;64.47;39.70;;;;;;;20.05;100.00;101506.66;4810173;29;20395;-80
2023/10/04 06:09:06;;;;;;;66.20;38.70;;;;;;;19.95;100.00;101497.41;4824738;29;20053;-80
2023/10/04 06:11:34;;;;;;;61.22;36.92;;;;;;;20.08;100.00;101501.25;4813584;29;20051;-80
2023/10/04 06:14:03;;;;;;;63.92;38.97;;;;;;;20.16;100.00;101512.72;4824539;29;20061;-80
2023/10/04 06:16:31;;;;;;;60.30;38.88;;;;;;;20.12;100.00;101518.09;4824523;29;20410;-80
2023/10/04 06:18:59;;;;;;;69.78;40.47;;;;;;;19.95;100.00;101519.66;4824576;29;20053;-80
2023/10/04 06:21:27;;;;;;;72.47;41.30;;;;;;;19.93;100.00;101521.94;4808175;29;20050;-79
2023/10/04 06:23:55;;;;;;;66.32;38.78;;;;;;;20.02;100.00;101519.22;4830045;29;20038;-80
2023/10/04 06:26:23;;;;;;;63.53;39.97;;;;;;;19.98;100.00;101537.66;4823818;29;20057;-80
2023/10/04 06:28:50;;;;;;;66.88;40.58;;;;;;;19.76;100.00;101538.53;4823384;29;20053;-81
2023/10/04 06:31:18;;;;;;;67.30;41.65;;;;;;;19.86;100.00;101541.81;4823794;29;20804;-80
2023/10/04 06:33:50;;;;;;;66.32;41.05;;;;;;;19.98;100.00;101541.28;4824395;29;20059;-80
2023/10/04 06:36:18;;;;;;;70.80;40.30;;;;;;;20.01;100.00;101543.38;4823805;29;20054;-79
2023/10/04 06:38:46;;;;;;;66.63;38.60;;;;;;;20.07;100.00;101548.81;4823900;29;20050;-79
2023/10/04 06:41:15;;;;;;;71.07;40.38;;;;;;;20.11;100.00;101550.63;4808177;29;20050;-79
2023/10/04 06:43:44;;;;;;;69.50;40.70;;;;;;;20.09;100.00;101554.88;4824244;29;20054;-79
2023/10/04 06:46:12;;;;;;;72.43;40.03;;;;;;;20.22;100.00;101553.94;4824276;29;20057;-79
2023/10/04 06:48:41;;;;;;;62.63;38.47;;;;;;;20.28;100.00;101554.59;4824070;29;20042;-79
2023/10/04 06:51:10;;;;;;;60.13;38.05;;;;;;;20.33;100.00;101562.78;4830818;29;20511;-79
2023/10/04 06:53:43;;;;;;;61.42;37.10;;;;;;;20.39;100.00;101564.25;4823797;29;20046;-79
2023/10/04 06:56:12;;;;;;;62.17;38.78;;;;;;;20.45;100.00;101570.50;4807732;29;20062;-79
2023/10/04 06:58:41;;;;;;;60.83;38.05;;;;;;;20.46;100.00;101571.31;4823596;29;20046;-79
2023/10/04 07:01:08;;;;;;;68.68;37.38;;;;;;;20.41;100.00;101572.28;4823153;29;20044;-80
2023/10/04 07:03:37;;;;;;;58.00;36.53;;;;;;;20.49;100.00;101581.78;4823888;29;20047;-80
2023/10/04 07:06:06;;;;;;;60.50;36.30;;;;;;;20.39;100.00;101577.38;4824053;29;20054;-81
2023/10/04 07:08:35;;;;;;;65.47;37.50;;;;;;;20.39;100.00;101589.28;4807376;29;20050;-80
2023/10/04 07:11:04;;;;;;;60.33;36.78;;;;;;;20.37;100.00;101585.19;4823997;29;20398;-79
2023/10/04 07:13:32;;;;;;;62.05;37.15;;;;;;;20.35;100.00;101579.97;4823600;29;20046;-79
2023/10/04 07:16:04;;;;;;;62.88;38.10;;;;;;;20.28;100.00;101586.00;4824014;29;20058;-79
2023/10/04 07:18:33;;;;;;;66.68;39.08;;;;;;;20.37;100.00;101588.81;4807067;29;20046;-80
2023/10/04 07:21:01;;;;;;;65.38;39.00;;;;;;;20.46;100.00;101576.88;4823484;29;20406;-85
2023/10/04 07:23:29;;;;;;;63.03;37.10;;;;;;;20.49;100.00;101585.38;4806947;29;20058;-85
2023/10/04 07:26:10;;;;;;;65.18;39.28;;;;;;;20.53;100.00;101585.56;4821122;29;20526;-84
2023/10/04 07:28:40;;;;;;;61.08;38.70;;;;;;;20.42;100.00;101593.38;4823754;29;20050;-83
2023/10/04 07:31:08;;;;;;;68.38;37.75;;;;;;;20.44;100.00;101587.50;4823682;29;20050;-84
2023/10/04 07:33:36;;;;;;;58.20;37.30;;;;;;;20.58;100.00;101596.53;4807153;29;20065;-84
2023/10/04 07:36:05;;;;;;;68.22;38.50;;;;;;;20.49;100.00;101610.41;4829744;29;20054;-85
2023/10/04 07:38:32;;;;;;;61.97;37.78;;;;;;;20.41;100.00;101611.22;4823866;29;20055;-85
2023/10/04 07:41:01;;;;;;;60.58;38.10;;;;;;;20.53;100.00;101621.72;4823491;29;20054;-85
2023/10/04 07:43:29;;;;;;;65.22;37.70;;;;;;;20.55;100.00;101625.00;4806878;29;20080;-86
2023/10/04 07:46:00;;;;;;;61.85;37.00;;;;;;;20.54;100.00;101621.38;4823387;29;20050;-86
2023/10/04 07:48:28;;;;;;;65.28;36.35;;;;;;;20.63;100.00;101626.97;4806539;29;20051;-86
2023/10/04 07:50:56;;;;;;;60.28;37.65;;;;;;;20.67;100.00;101632.69;4823403;29;20387;-86
2023/10/04 07:53:25;;;;;;;64.65;37.88;;;;;;;20.63;100.00;101631.72;4823273;29;20058;-86
2023/10/04 07:55:53;;;;;;;59.53;37.35;;;;;;;20.63;100.00;101635.31;4823414;29;20054;-86
2023/10/04 07:58:20;;;;;;;56.65;35.40;;;;;;;20.68;100.00;101637.94;4806258;29;20054;-86
2023/10/04 08:00:49;;;;;;;61.25;36.90;;;;;;;20.70;100.00;101640.41;4823295;29;20510;-86
2023/10/04 08:03:17;;;;;;;63.17;35.47;;;;;;;20.76;100.00;101643.84;4823191;29;20058;-85
2023/10/04 08:05:45;;;;;;;59.47;36.30;;;;;;;20.78;100.00;101644.34;4823262;29;20050;-86
2023/10/04 08:08:13;;;;;;;57.97;35.03;;;;;;;20.84;100.00;101645.84;4807154;29;20058;-86
2023/10/04 08:10:41;;;;;;;62.30;36.53;;;;;;;20.88;100.00;101649.63;4823213;29;20054;-87
2023/10/04 08:13:10;;;;;;;56.47;34.40;;;;;;;20.86;100.00;101643.56;4806897;29;20058;-87
2023/10/04 08:15:38;;;;;;;64.10;36.35;;;;;;;20.96;100.00;101649.97;4823185;29;20051;-87
2023/10/04 08:18:07;;;;;;;65.53;36.40;;;;;;;20.96;100.00;101645.22;4806963;29;20383;-87
2023/10/04 08:20:36;;;;;;;62.33;36.72;;;;;;;20.97;100.00;101646.84;4822912;29;20089;-88
2023/10/04 08:23:05;;;;;;;59.33;36.63;;;;;;;20.98;100.00;101642.13;4806651;29;20073;-87
2023/10/04 08:25:34;;;;;;;67.88;37.30;;;;;;;20.99;100.00;101644.56;4823117;29;20066;-87
2023/10/04 08:28:09;;;;;;;62.95;37.75;;;;;;;21.11;100.00;101643.13;4791563;29;20066;-89
2023/10/04 08:30:40;;;;;;;62.05;37.75;;;;;;;21.16;100.00;101648.53;4822981;29;20046;-88
2023/10/04 08:33:09;;;;;;;62.58;36.38;;;;;;;21.05;100.00;101653.56;4806134;29;20054;-89
2023/10/04 08:35:37;;;;;;;61.58;37.00;;;;;;;21.25;100.00;101654.09;4822814;29;20050;-88
2023/10/04 08:38:06;;;;;;;64.35;37.28;;;;;;;21.40;100.00;101644.44;4822844;29;20061;-87
2023/10/04 08:40:38;;;;;;;64.05;35.92;;;;;;;21.39;100.00;101657.53;4808206;29;20055;-87
2023/10/04 08:43:10;;;;;;;58.10;35.80;;;;;;;21.34;100.00;101652.13;4806287;29;20069;-87
2023/10/04 08:45:39;;;;;;;59.15;35.28;;;;;;;21.40;100.00;101653.59;4822627;29;20406;-87
2023/10/04 08:48:09;;;;;;;58.83;34.42;;;;;;;21.52;100.00;101655.72;4823562;29;20054;-87
2023/10/04 08:50:41;;;;;;;63.28;36.22;;;;;;;21.47;99.35;101659.47;4824830;29;20046;-89
2023/10/04 08:53:44;;;;;;;56.28;33.80;;;;;;;21.52;98.54;101654.88;4840902;29;20062;-88
2023/10/04 08:56:17;;;;;;;59.55;35.20;;;;;;;21.62;97.90;101658.13;4840959;29;20046;-87
2023/10/04 08:58:47;;;;;;;62.10;35.53;;;;;;;21.60;98.96;101663.22;4828019;29;20047;-88
2023/10/04 09:01:16;;;;;;;56.05;35.17;;;;;;;21.71;100.00;101660.94;4822755;29;20052;-87
2023/10/04 09:03:44;;;;;;;65.35;37.65;;;;;;;21.68;99.88;101658.81;4822153;29;20061;-87
2023/10/04 09:06:17;;;;;;;58.63;36.03;;;;;;;21.71;99.67;101644.22;4806563;29;20058;-88
2023/10/04 09:08:45;;;;;;;61.88;35.53;;;;;;;21.79;100.00;101664.06;4822628;29;20054;-87
2023/10/04 09:11:17;;;;;;;58.65;35.63;;;;;;;21.78;98.34;101651.25;4824342;29;20050;-87
2023/10/04 09:13:50;;;;;;;59.92;33.92;;;;;;;22.00;96.61;101647.47;4829428;29;20049;-88
2023/10/04 09:16:22;;;;;;;56.40;33.80;;;;;;;22.14;96.58;101645.28;4844219;29;20046;-87
2023/10/04 09:19:07;;;;;;;53.08;33.17;;;;;;;22.29;96.08;101632.75;4815863;29;20482;-87
2023/10/04 09:21:38;;;;;;;53.88;32.08;;;;;;;22.38;95.32;101637.47;4828713;29;20050;-88
2023/10/04 09:24:10;;;;;;;56.88;31.25;;;;;;;22.46;95.18;101631.03;4827978;29;20421;-87
2023/10/04 09:26:42;;;;;;;52.88;31.50;;;;;;;22.53;94.50;101624.97;4844168;29;20375;-86
2023/10/04 09:29:12;;;;;;;50.17;29.45;;;;;;;22.65;93.80;101627.00;4844075;29;20128;-87
2023/10/04 09:31:53;;;;;;;42.90;28.33;;;;;;;22.73;92.75;101612.19;4823462;29;20054;-90
2023/10/04 09:34:25;;;;;;;49.15;29.55;;;;;;;22.77;93.24;101621.50;4822421;29;20648;-90
2023/10/04 09:36:53;;;;;;;45.08;27.83;;;;;;;22.80;92.12;101612.47;4821923;29;20062;-87
2023/10/04 09:39:28;;;;;;;46.13;29.95;;;;;;;22.94;91.67;101616.97;4793630;29;20070;-86
2023/10/04 09:41:57;;;;;;;43.35;27.40;;;;;;;22.98;92.90;101611.53;4821396;29;20073;-86
2023/10/04 09:44:27;;;;;;;41.67;27.85;;;;;;;23.28;93.12;101622.59;4821270;29;20503;-86
2023/10/04 09:47:00;;;;;;;34.92;21.30;;;;;;;23.51;93.18;101625.06;4808091;29;20172;-86
2023/10/04 09:49:34;;;;;;;29.83;19.58;;;;;;;23.70;92.88;101621.75;4823830;29;20065;-92
2023/10/04 09:52:16;;;;;;;25.45;17.83;;;;;;;23.77;93.18;101619.19;4811372;29;20042;-91
2023/10/04 09:54:44;;;;;;;22.33;16.35;;;;;;;23.81;92.10;101627.69;4803838;29;20057;-89
2023/10/04 09:57:18;;;;;;;23.02;16.15;;;;;;;23.86;91.03;101635.88;4791454;29;20046;-90
2023/10/04 09:59:50;;;;;;;21.85;15.57;;;;;;;23.82;91.57;101624.56;4805185;29;20129;-91
2023/10/04 10:02:22;;;;;;;19.08;12.80;;;;;;;23.71;91.47;101637.34;4808668;29;20058;-90
2023/10/04 10:04:51;;;;;;;17.85;13.40;;;;;;;23.66;91.71;101635.56;4792262;29;20057;-93
2023/10/04 10:07:23;;;;;;;21.85;13.13;;;;;;;23.84;89.93;101630.63;4829255;29;20065;-87
2023/10/04 10:10:04;;;;;;;19.15;13.25;;;;;;;23.87;90.77;101629.94;4819361;29;20425;-87
2023/10/04 10:12:43;;;;;;;20.63;13.18;;;;;;;23.96;89.30;101631.81;4819405;29;20053;-86
2023/10/04 10:15:13;;;;;;;17.58;12.80;;;;;;;24.01;88.37;101635.19;4802722;29;20631;-87
2023/10/04 10:17:43;;;;;;;19.33;13.65;;;;;;;23.95;88.95;101624.59;4803858;29;20058;-88
2023/10/04 10:20:12;;;;;;;17.42;14.20;;;;;;;23.84;89.17;101619.44;4803211;29;20054;-87
2023/10/04 10:23:01;;;;;;;17.98;14.60;;;;;;;23.80;91.40;101634.47;4823167;29;20074;-88
2023/10/04 10:25:37;;;;;;;19.20;13.18;;;;;;;23.88;89.85;101631.56;4796596;29;20065;-87
2023/10/04 10:28:18;;;;;;;16.23;12.85;;;;;;;24.00;89.39;101629.97;4806365;29;20046;-88
2023/10/04 10:30:46;;;;;;;15.95;12.90;;;;;;;24.05;89.04;101626.09;4819204;29;20061;-87
2023/10/04 10:33:21;;;;;;;19.05;13.40;;;;;;;24.06;89.22;101633.31;4820287;29;20046;-87
2023/10/04 10:35:58;;;;;;;19.60;13.90;;;;;;;24.07;89.79;101627.44;4818775;29;20541;-87
2023/10/04 10:38:47;;;;;;;19.10;12.77;;;;;;;24.35;89.19;101631.53;4829083;29;20073;-87
2023/10/04 10:41:27;;;;;;;16.90;13.02;;;;;;;24.29;87.95;101633.72;4802098;29;20051;-88
2023/10/04 10:44:20;;;;;;;19.08;13.70;;;;;;;24.20;89.27;101633.03;4824159;29;20058;-86
2023/10/04 10:46:57;;;;;;;16.75;12.82;;;;;;;24.07;90.09;101627.44;4822273;29;20054;-88
2023/10/04 10:49:40;;;;;;;17.98;13.65;;;;;;;24.21;88.52;101629.06;4820172;29;20054;-87
2023/10/04 10:52:19;;;;;;;14.23;11.98;;;;;;;24.20;89.28;101631.06;4818882;29;20046;-86
2023/10/04 10:54:48;;;;;;;14.55;11.50;;;;;;;24.14;88.42;101626.84;4821551;29;20065;-87
2023/10/04 10:57:19;;;;;;;17.92;11.85;;;;;;;24.07;88.88;101612.59;4802452;29;20054;-86
2023/10/04 10:59:56;;;;;;;15.90;11.73;;;;;;;24.18;88.11;101626.97;4821115;29;20061;-87
2023/10/04 11:02:26;;;;;;;15.98;11.50;;;;;;;24.21;87.22;101623.47;4818221;29;20443;-92
2023/10/04 11:04:55;;;;;;;16.65;11.95;;;;;;;24.03;87.89;101629.25;4803040;29;20059;-84
2023/10/04 11:07:24;;;;;;;16.58;12.07;;;;;;;24.03;86.68;101632.03;4824595;29;20053;-84
2023/10/04 11:09:54;;;;;;;17.33;12.32;;;;;;;23.89;87.61;101627.59;4826000;29;20793;-85
2023/10/04 11:12:23;;;;;;;15.18;11.93;;;;;;;23.84;88.04;101624.19;4822135;29;20596;-86
2023/10/04 11:14:53;;;;;;;16.15;12.18;;;;;;;23.76;88.95;101623.94;4822505;29;20073;-86
2023/10/04 11:17:21;;;;;;;17.00;12.15;;;;;;;23.80;88.60;101629.66;4824413;29;20683;-83